sensor_id;sensor_type;location;lat;lon;timestamp;P1;durP1;ratioP1;P2;durP2;ratioP2
47431;SDS011;33183;52.290;6.144;2024-03-29T00:00:25;1.67;;;0.70;;
47431;SDS011;33183;52.290;6.144;2024-03-29T00:02:50;1.08;;;0.60;;
47431;SDS011;33183;52.290;6.144;2024-03-29T00:05:15;1.58;;;0.68;;
47431;SDS011;33183;52.290;6.144;2024-03-29T00:07:41;0.90;;;0.60;;
47431;SDS011;33183;52.290;6.144;2024-03-29T00:10:06;1.75;;;0.60;;
47431;SDS011;33183;52.290;6.144;2024-03-29T00:12:31;1.42;;;0.60;;
47431;SDS011;33183;52.290;6.144;2024-03-29T00:14:56;0.98;;;0.60;;
47431;SDS011;33183;52.290;6.144;2024-03-29T00:17:22;1.38;;;0.68;;
47431;SDS011;33183;52.290;6.144;2024-03-29T00:19:47;1.60;;;0.80;;
47431;SDS011;33183;52.290;6.144;2024-03-29T00:22:13;0.73;;;0.40;;
47431;SDS011;33183;52.290;6.144;2024-03-29T00:24:38;1.38;;;0.52;;
47431;SDS011;33183;52.290;6.144;2024-03-29T00:27:03;1.48;;;0.60;;
47431;SDS011;33183;52.290;6.144;2024-03-29T00:29:29;0.95;;;0.63;;
47431;SDS011;33183;52.290;6.144;2024-03-29T00:31:54;0.73;;;0.50;;
47431;SDS011;33183;52.290;6.144;2024-03-29T00:34:20;0.80;;;0.50;;
47431;SDS011;33183;52.290;6.144;2024-03-29T00:36:45;1.65;;;0.52;;
47431;SDS011;33183;52.290;6.144;2024-03-29T00:39:10;1.98;;;0.75;;
47431;SDS011;33183;52.290;6.144;2024-03-29T00:41:36;1.30;;;0.68;;
47431;SDS011;33183;52.290;6.144;2024-03-29T00:44:02;1.42;;;0.65;;
47431;SDS011;33183;52.290;6.144;2024-03-29T00:46:28;2.47;;;0.60;;
47431;SDS011;33183;52.290;6.144;2024-03-29T00:48:53;0.70;;;0.47;;
47431;SDS011;33183;52.290;6.144;2024-03-29T00:51:19;1.95;;;0.50;;
47431;SDS011;33183;52.290;6.144;2024-03-29T00:53:44;1.55;;;0.57;;
47431;SDS011;33183;52.290;6.144;2024-03-29T00:56:09;1.48;;;0.60;;
47431;SDS011;33183;52.290;6.144;2024-03-29T00:58:34;0.70;;;0.60;;
47431;SDS011;33183;52.290;6.144;2024-03-29T01:00:59;1.10;;;0.63;;
47431;SDS011;33183;52.290;6.144;2024-03-29T01:03:25;1.17;;;0.52;;
47431;SDS011;33183;52.290;6.144;2024-03-29T01:05:53;2.75;;;0.50;;
47431;SDS011;33183;52.290;6.144;2024-03-29T01:08:19;1.65;;;0.73;;
47431;SDS011;33183;52.290;6.144;2024-03-29T01:10:44;0.95;;;0.50;;
47431;SDS011;33183;52.290;6.144;2024-03-29T01:13:09;2.53;;;1.02;;
47431;SDS011;33183;52.290;6.144;2024-03-29T01:15:35;1.52;;;0.60;;
47431;SDS011;33183;52.290;6.144;2024-03-29T01:18:00;0.63;;;0.45;;
47431;SDS011;33183;52.290;6.144;2024-03-29T01:20:25;1.13;;;0.50;;
47431;SDS011;33183;52.290;6.144;2024-03-29T01:22:50;1.23;;;0.50;;
47431;SDS011;33183;52.290;6.144;2024-03-29T01:25:16;2.35;;;0.70;;
47431;SDS011;33183;52.290;6.144;2024-03-29T01:27:42;1.42;;;0.52;;
47431;SDS011;33183;52.290;6.144;2024-03-29T01:30:07;1.15;;;0.80;;
47431;SDS011;33183;52.290;6.144;2024-03-29T01:32:33;1.08;;;0.52;;
47431;SDS011;33183;52.290;6.144;2024-03-29T01:34:58;0.90;;;0.57;;
47431;SDS011;33183;52.290;6.144;2024-03-29T01:37:24;0.88;;;0.57;;
47431;SDS011;33183;52.290;6.144;2024-03-29T01:39:49;0.75;;;0.47;;
47431;SDS011;33183;52.290;6.144;2024-03-29T01:42:14;1.35;;;0.57;;
47431;SDS011;33183;52.290;6.144;2024-03-29T01:44:39;1.50;;;0.70;;
47431;SDS011;33183;52.290;6.144;2024-03-29T01:47:05;1.20;;;0.60;;
47431;SDS011;33183;52.290;6.144;2024-03-29T01:49:30;2.40;;;0.80;;
47431;SDS011;33183;52.290;6.144;2024-03-29T01:51:56;1.35;;;0.73;;
47431;SDS011;33183;52.290;6.144;2024-03-29T01:54:21;1.55;;;0.70;;
47431;SDS011;33183;52.290;6.144;2024-03-29T01:56:46;2.83;;;0.70;;
47431;SDS011;33183;52.290;6.144;2024-03-29T01:59:13;0.93;;;0.68;;
47431;SDS011;33183;52.290;6.144;2024-03-29T02:01:42;1.30;;;0.70;;
47431;SDS011;33183;52.290;6.144;2024-03-29T02:04:08;1.73;;;0.70;;
47431;SDS011;33183;52.290;6.144;2024-03-29T02:06:34;1.67;;;0.80;;
47431;SDS011;33183;52.290;6.144;2024-03-29T02:09:00;1.05;;;0.63;;
47431;SDS011;33183;52.290;6.144;2024-03-29T02:11:25;1.08;;;0.52;;
47431;SDS011;33183;52.290;6.144;2024-03-29T02:13:51;0.95;;;0.50;;
47431;SDS011;33183;52.290;6.144;2024-03-29T02:16:17;0.88;;;0.45;;
47431;SDS011;33183;52.290;6.144;2024-03-29T02:18:42;0.75;;;0.50;;
47431;SDS011;33183;52.290;6.144;2024-03-29T02:21:07;1.48;;;0.90;;
47431;SDS011;33183;52.290;6.144;2024-03-29T02:23:33;0.85;;;0.50;;
47431;SDS011;33183;52.290;6.144;2024-03-29T02:26:02;1.17;;;0.70;;
47431;SDS011;33183;52.290;6.144;2024-03-29T02:28:29;1.25;;;0.60;;
47431;SDS011;33183;52.290;6.144;2024-03-29T02:30:55;1.10;;;0.65;;
47431;SDS011;33183;52.290;6.144;2024-03-29T02:33:20;1.67;;;0.70;;
47431;SDS011;33183;52.290;6.144;2024-03-29T02:35:46;1.20;;;0.60;;
47431;SDS011;33183;52.290;6.144;2024-03-29T02:38:11;1.50;;;0.60;;
47431;SDS011;33183;52.290;6.144;2024-03-29T02:40:37;2.05;;;0.65;;
47431;SDS011;33183;52.290;6.144;2024-03-29T02:43:02;1.27;;;0.70;;
47431;SDS011;33183;52.290;6.144;2024-03-29T02:45:27;0.85;;;0.60;;
47431;SDS011;33183;52.290;6.144;2024-03-29T02:47:52;0.80;;;0.50;;
47431;SDS011;33183;52.290;6.144;2024-03-29T02:50:18;0.93;;;0.50;;
47431;SDS011;33183;52.290;6.144;2024-03-29T02:52:43;1.15;;;0.70;;
47431;SDS011;33183;52.290;6.144;2024-03-29T02:55:08;1.10;;;0.60;;
47431;SDS011;33183;52.290;6.144;2024-03-29T02:57:35;1.00;;;0.60;;
47431;SDS011;33183;52.290;6.144;2024-03-29T03:00:07;1.50;;;0.70;;
47431;SDS011;33183;52.290;6.144;2024-03-29T03:02:37;1.30;;;0.70;;
47431;SDS011;33183;52.290;6.144;2024-03-29T03:05:03;0.63;;;0.50;;
47431;SDS011;33183;52.290;6.144;2024-03-29T03:07:29;1.65;;;0.70;;
47431;SDS011;33183;52.290;6.144;2024-03-29T03:10:13;1.23;;;0.80;;
47431;SDS011;33183;52.290;6.144;2024-03-29T03:12:56;2.30;;;0.60;;
47431;SDS011;33183;52.290;6.144;2024-03-29T03:15:22;2.58;;;0.63;;
47431;SDS011;33183;52.290;6.144;2024-03-29T03:17:47;1.00;;;0.63;;
47431;SDS011;33183;52.290;6.144;2024-03-29T03:20:12;0.88;;;0.50;;
47431;SDS011;33183;52.290;6.144;2024-03-29T03:22:39;2.55;;;0.68;;
47431;SDS011;33183;52.290;6.144;2024-03-29T03:25:05;0.73;;;0.52;;
47431;SDS011;33183;52.290;6.144;2024-03-29T03:27:30;1.27;;;0.70;;
47431;SDS011;33183;52.290;6.144;2024-03-29T03:29:55;1.35;;;0.60;;
47431;SDS011;33183;52.290;6.144;2024-03-29T03:32:20;0.70;;;0.60;;
47431;SDS011;33183;52.290;6.144;2024-03-29T03:34:46;1.08;;;0.68;;
47431;SDS011;33183;52.290;6.144;2024-03-29T03:37:11;2.38;;;0.80;;
47431;SDS011;33183;52.290;6.144;2024-03-29T03:39:37;1.67;;;0.77;;
47431;SDS011;33183;52.290;6.144;2024-03-29T03:42:02;1.65;;;0.70;;
47431;SDS011;33183;52.290;6.144;2024-03-29T03:44:28;1.48;;;0.60;;
47431;SDS011;33183;52.290;6.144;2024-03-29T03:46:53;2.88;;;0.88;;
47431;SDS011;33183;52.290;6.144;2024-03-29T03:49:18;1.15;;;0.52;;
47431;SDS011;33183;52.290;6.144;2024-03-29T03:51:44;1.67;;;0.90;;
47431;SDS011;33183;52.290;6.144;2024-03-29T03:54:09;1.10;;;0.60;;
47431;SDS011;33183;52.290;6.144;2024-03-29T03:56:34;0.88;;;0.70;;
47431;SDS011;33183;52.290;6.144;2024-03-29T03:58:59;1.95;;;0.70;;
47431;SDS011;33183;52.290;6.144;2024-03-29T04:01:25;0.95;;;0.73;;
47431;SDS011;33183;52.290;6.144;2024-03-29T04:03:50;1.73;;;0.65;;
47431;SDS011;33183;52.290;6.144;2024-03-29T04:06:15;1.23;;;0.60;;
47431;SDS011;33183;52.290;6.144;2024-03-29T04:08:40;0.98;;;0.70;;
47431;SDS011;33183;52.290;6.144;2024-03-29T04:11:06;2.30;;;0.70;;
47431;SDS011;33183;52.290;6.144;2024-03-29T04:13:31;1.65;;;0.57;;
47431;SDS011;33183;52.290;6.144;2024-03-29T04:16:02;0.85;;;0.52;;
47431;SDS011;33183;52.290;6.144;2024-03-29T04:18:28;2.00;;;0.77;;
47431;SDS011;33183;52.290;6.144;2024-03-29T04:20:57;0.60;;;0.50;;
47431;SDS011;33183;52.290;6.144;2024-03-29T04:25:57;1.17;;;0.60;;
47431;SDS011;33183;52.290;6.144;2024-03-29T04:28:24;1.23;;;0.60;;
47431;SDS011;33183;52.290;6.144;2024-03-29T04:30:53;1.08;;;0.63;;
47431;SDS011;33183;52.290;6.144;2024-03-29T04:33:21;0.70;;;0.50;;
47431;SDS011;33183;52.290;6.144;2024-03-29T04:36:00;1.08;;;0.82;;
47431;SDS011;33183;52.290;6.144;2024-03-29T04:38:26;1.23;;;0.80;;
47431;SDS011;33183;52.290;6.144;2024-03-29T04:40:53;1.73;;;0.90;;
47431;SDS011;33183;52.290;6.144;2024-03-29T04:43:23;1.88;;;1.10;;
47431;SDS011;33183;52.290;6.144;2024-03-29T04:45:49;1.30;;;0.60;;
47431;SDS011;33183;52.290;6.144;2024-03-29T04:48:15;1.67;;;0.70;;
47431;SDS011;33183;52.290;6.144;2024-03-29T04:50:40;1.48;;;0.60;;
47431;SDS011;33183;52.290;6.144;2024-03-29T04:53:06;1.27;;;0.70;;
47431;SDS011;33183;52.290;6.144;2024-03-29T04:55:33;1.38;;;0.70;;
47431;SDS011;33183;52.290;6.144;2024-03-29T04:57:58;1.25;;;0.77;;
47431;SDS011;33183;52.290;6.144;2024-03-29T05:00:23;2.03;;;0.95;;
47431;SDS011;33183;52.290;6.144;2024-03-29T05:02:48;4.60;;;2.17;;
47431;SDS011;33183;52.290;6.144;2024-03-29T05:05:14;4.22;;;2.38;;
47431;SDS011;33183;52.290;6.144;2024-03-29T05:07:39;4.55;;;2.80;;
47431;SDS011;33183;52.290;6.144;2024-03-29T05:10:04;9.20;;;4.53;;
47431;SDS011;33183;52.290;6.144;2024-03-29T05:12:32;4.60;;;2.33;;
47431;SDS011;33183;52.290;6.144;2024-03-29T05:14:57;7.68;;;3.35;;
47431;SDS011;33183;52.290;6.144;2024-03-29T05:17:22;6.68;;;3.35;;
47431;SDS011;33183;52.290;6.144;2024-03-29T05:22:16;5.82;;;2.80;;
47431;SDS011;33183;52.290;6.144;2024-03-29T05:24:42;5.82;;;3.25;;
47431;SDS011;33183;52.290;6.144;2024-03-29T05:27:07;8.02;;;3.30;;
47431;SDS011;33183;52.290;6.144;2024-03-29T05:29:32;4.53;;;2.88;;
47431;SDS011;33183;52.290;6.144;2024-03-29T05:31:57;6.75;;;3.50;;
47431;SDS011;33183;52.290;6.144;2024-03-29T05:34:23;5.55;;;3.42;;
47431;SDS011;33183;52.290;6.144;2024-03-29T05:36:48;5.95;;;3.67;;
47431;SDS011;33183;52.290;6.144;2024-03-29T05:39:13;5.82;;;3.35;;
47431;SDS011;33183;52.290;6.144;2024-03-29T05:41:40;5.32;;;3.00;;
47431;SDS011;33183;52.290;6.144;2024-03-29T05:44:05;6.03;;;2.90;;
47431;SDS011;33183;52.290;6.144;2024-03-29T05:46:31;7.03;;;3.38;;
47431;SDS011;33183;52.290;6.144;2024-03-29T05:48:56;5.00;;;2.50;;
47431;SDS011;33183;52.290;6.144;2024-03-29T05:51:21;5.55;;;2.85;;
47431;SDS011;33183;52.290;6.144;2024-03-29T05:53:46;5.30;;;2.55;;
47431;SDS011;33183;52.290;6.144;2024-03-29T05:56:12;4.90;;;3.15;;
47431;SDS011;33183;52.290;6.144;2024-03-29T05:58:37;4.85;;;2.72;;
47431;SDS011;33183;52.290;6.144;2024-03-29T06:01:02;7.10;;;2.95;;
47431;SDS011;33183;52.290;6.144;2024-03-29T06:03:28;4.32;;;2.60;;
47431;SDS011;33183;52.290;6.144;2024-03-29T06:05:54;6.38;;;2.88;;
47431;SDS011;33183;52.290;6.144;2024-03-29T06:08:19;4.93;;;2.95;;
47431;SDS011;33183;52.290;6.144;2024-03-29T06:10:46;6.25;;;3.65;;
47431;SDS011;33183;52.290;6.144;2024-03-29T06:13:11;4.60;;;2.58;;
47431;SDS011;33183;52.290;6.144;2024-03-29T06:15:52;7.10;;;2.78;;
47431;SDS011;33183;52.290;6.144;2024-03-29T06:18:36;5.75;;;2.30;;
47431;SDS011;33183;52.290;6.144;2024-03-29T06:21:02;6.03;;;2.80;;
47431;SDS011;33183;52.290;6.144;2024-03-29T06:23:27;4.15;;;2.30;;
47431;SDS011;33183;52.290;6.144;2024-03-29T06:25:52;5.90;;;3.08;;
47431;SDS011;33183;52.290;6.144;2024-03-29T06:28:18;4.50;;;2.30;;
47431;SDS011;33183;52.290;6.144;2024-03-29T06:30:43;5.00;;;2.72;;
47431;SDS011;33183;52.290;6.144;2024-03-29T06:33:08;5.65;;;2.30;;
47431;SDS011;33183;52.290;6.144;2024-03-29T06:35:34;4.50;;;2.22;;
47431;SDS011;33183;52.290;6.144;2024-03-29T06:37:59;3.92;;;2.30;;
47431;SDS011;33183;52.290;6.144;2024-03-29T06:40:25;3.15;;;2.10;;
47431;SDS011;33183;52.290;6.144;2024-03-29T06:42:50;5.53;;;3.20;;
47431;SDS011;33183;52.290;6.144;2024-03-29T06:45:16;4.78;;;2.45;;
47431;SDS011;33183;52.290;6.144;2024-03-29T06:47:41;4.88;;;2.90;;
47431;SDS011;33183;52.290;6.144;2024-03-29T06:50:06;5.35;;;2.53;;
47431;SDS011;33183;52.290;6.144;2024-03-29T06:52:32;4.28;;;2.70;;
47431;SDS011;33183;52.290;6.144;2024-03-29T06:54:57;3.53;;;2.33;;
47431;SDS011;33183;52.290;6.144;2024-03-29T06:57:22;4.25;;;2.45;;
47431;SDS011;33183;52.290;6.144;2024-03-29T06:59:50;6.55;;;2.38;;
47431;SDS011;33183;52.290;6.144;2024-03-29T07:02:15;4.35;;;2.05;;
47431;SDS011;33183;52.290;6.144;2024-03-29T07:04:41;5.80;;;2.00;;
47431;SDS011;33183;52.290;6.144;2024-03-29T07:07:06;4.20;;;2.42;;
47431;SDS011;33183;52.290;6.144;2024-03-29T07:09:31;4.20;;;2.00;;
47431;SDS011;33183;52.290;6.144;2024-03-29T07:11:56;3.13;;;2.03;;
47431;SDS011;33183;52.290;6.144;2024-03-29T07:14:23;4.05;;;2.30;;
47431;SDS011;33183;52.290;6.144;2024-03-29T07:16:51;3.75;;;2.22;;
47431;SDS011;33183;52.290;6.144;2024-03-29T07:19:16;3.58;;;2.00;;
47431;SDS011;33183;52.290;6.144;2024-03-29T07:21:42;3.85;;;1.80;;
47431;SDS011;33183;52.290;6.144;2024-03-29T07:24:08;4.90;;;2.35;;
47431;SDS011;33183;52.290;6.144;2024-03-29T07:26:34;4.75;;;2.47;;
47431;SDS011;33183;52.290;6.144;2024-03-29T07:28:59;3.75;;;2.00;;
47431;SDS011;33183;52.290;6.144;2024-03-29T07:31:24;3.95;;;2.10;;
47431;SDS011;33183;52.290;6.144;2024-03-29T07:33:50;5.00;;;2.13;;
47431;SDS011;33183;52.290;6.144;2024-03-29T07:36:15;3.20;;;1.85;;
47431;SDS011;33183;52.290;6.144;2024-03-29T07:38:41;2.67;;;1.80;;
47431;SDS011;33183;52.290;6.144;2024-03-29T07:41:07;3.42;;;1.95;;
47431;SDS011;33183;52.290;6.144;2024-03-29T07:43:40;3.42;;;2.17;;
47431;SDS011;33183;52.290;6.144;2024-03-29T07:46:07;3.13;;;2.17;;
47431;SDS011;33183;52.290;6.144;2024-03-29T07:48:33;3.65;;;1.95;;
47431;SDS011;33183;52.290;6.144;2024-03-29T07:50:59;5.30;;;2.75;;
47431;SDS011;33183;52.290;6.144;2024-03-29T07:53:24;3.28;;;2.00;;
47431;SDS011;33183;52.290;6.144;2024-03-29T07:55:49;4.30;;;2.08;;
47431;SDS011;33183;52.290;6.144;2024-03-29T07:58:15;2.78;;;1.70;;
47431;SDS011;33183;52.290;6.144;2024-03-29T08:00:41;3.20;;;1.80;;
47431;SDS011;33183;52.290;6.144;2024-03-29T08:03:07;5.95;;;2.08;;
47431;SDS011;33183;52.290;6.144;2024-03-29T08:05:32;3.55;;;1.67;;
47431;SDS011;33183;52.290;6.144;2024-03-29T08:07:58;3.03;;;1.90;;
47431;SDS011;33183;52.290;6.144;2024-03-29T08:10:24;3.50;;;1.65;;
47431;SDS011;33183;52.290;6.144;2024-03-29T08:12:49;2.75;;;1.52;;
47431;SDS011;33183;52.290;6.144;2024-03-29T08:15:14;2.10;;;1.52;;
47431;SDS011;33183;52.290;6.144;2024-03-29T08:17:40;3.83;;;1.95;;
47431;SDS011;33183;52.290;6.144;2024-03-29T08:20:05;3.30;;;1.98;;
47431;SDS011;33183;52.290;6.144;2024-03-29T08:22:31;3.58;;;1.50;;
47431;SDS011;33183;52.290;6.144;2024-03-29T08:24:59;3.33;;;1.55;;
47431;SDS011;33183;52.290;6.144;2024-03-29T08:27:25;3.65;;;1.65;;
47431;SDS011;33183;52.290;6.144;2024-03-29T08:29:54;3.90;;;2.53;;
47431;SDS011;33183;52.290;6.144;2024-03-29T08:32:19;2.78;;;1.50;;
47431;SDS011;33183;52.290;6.144;2024-03-29T08:34:45;3.33;;;1.92;;
47431;SDS011;33183;52.290;6.144;2024-03-29T08:37:10;3.05;;;1.80;;
47431;SDS011;33183;52.290;6.144;2024-03-29T08:39:35;2.22;;;1.40;;
47431;SDS011;33183;52.290;6.144;2024-03-29T08:42:02;2.53;;;1.40;;
47431;SDS011;33183;52.290;6.144;2024-03-29T08:44:32;3.88;;;1.50;;
47431;SDS011;33183;52.290;6.144;2024-03-29T08:46:58;3.03;;;1.80;;
47431;SDS011;33183;52.290;6.144;2024-03-29T08:49:24;1.90;;;1.38;;
47431;SDS011;33183;52.290;6.144;2024-03-29T08:51:49;3.10;;;1.58;;
47431;SDS011;33183;52.290;6.144;2024-03-29T08:54:15;2.95;;;1.40;;
47431;SDS011;33183;52.290;6.144;2024-03-29T08:56:40;2.05;;;1.30;;
47431;SDS011;33183;52.290;6.144;2024-03-29T08:59:05;2.97;;;1.70;;
47431;SDS011;33183;52.290;6.144;2024-03-29T09:01:40;2.40;;;1.58;;
47431;SDS011;33183;52.290;6.144;2024-03-29T09:04:11;2.42;;;1.52;;
47431;SDS011;33183;52.290;6.144;2024-03-29T09:06:39;2.42;;;1.40;;
47431;SDS011;33183;52.290;6.144;2024-03-29T09:09:05;2.97;;;1.40;;
47431;SDS011;33183;52.290;6.144;2024-03-29T09:11:31;2.95;;;1.50;;
47431;SDS011;33183;52.290;6.144;2024-03-29T09:13:56;2.92;;;1.40;;
47431;SDS011;33183;52.290;6.144;2024-03-29T09:16:23;3.30;;;1.88;;
47431;SDS011;33183;52.290;6.144;2024-03-29T09:18:50;2.40;;;1.42;;
47431;SDS011;33183;52.290;6.144;2024-03-29T09:21:15;2.42;;;1.38;;
47431;SDS011;33183;52.290;6.144;2024-03-29T09:23:41;1.55;;;1.17;;
47431;SDS011;33183;52.290;6.144;2024-03-29T09:26:07;2.30;;;1.40;;
47431;SDS011;33183;52.290;6.144;2024-03-29T09:28:32;2.60;;;1.33;;
47431;SDS011;33183;52.290;6.144;2024-03-29T09:30:59;3.55;;;1.55;;
47431;SDS011;33183;52.290;6.144;2024-03-29T09:33:25;2.35;;;1.10;;
47431;SDS011;33183;52.290;6.144;2024-03-29T09:35:50;2.28;;;1.40;;
47431;SDS011;33183;52.290;6.144;2024-03-29T09:38:15;1.92;;;1.10;;
47431;SDS011;33183;52.290;6.144;2024-03-29T09:40:41;1.63;;;1.20;;
47431;SDS011;33183;52.290;6.144;2024-03-29T09:43:07;2.45;;;1.17;;
47431;SDS011;33183;52.290;6.144;2024-03-29T09:45:34;2.55;;;1.42;;
47431;SDS011;33183;52.290;6.144;2024-03-29T09:48:01;1.67;;;1.27;;
47431;SDS011;33183;52.290;6.144;2024-03-29T09:50:28;1.70;;;1.30;;
47431;SDS011;33183;52.290;6.144;2024-03-29T09:52:54;1.70;;;1.10;;
47431;SDS011;33183;52.290;6.144;2024-03-29T09:55:20;2.40;;;1.38;;
47431;SDS011;33183;52.290;6.144;2024-03-29T09:57:45;1.88;;;1.05;;
47431;SDS011;33183;52.290;6.144;2024-03-29T10:00:11;1.42;;;1.25;;
47431;SDS011;33183;52.290;6.144;2024-03-29T10:02:37;2.03;;;1.00;;
47431;SDS011;33183;52.290;6.144;2024-03-29T10:05:02;2.95;;;1.65;;
47431;SDS011;33183;52.290;6.144;2024-03-29T10:09:57;2.28;;;1.20;;
47431;SDS011;33183;52.290;6.144;2024-03-29T10:12:23;2.90;;;1.30;;
47431;SDS011;33183;52.290;6.144;2024-03-29T10:14:49;2.30;;;1.23;;
47431;SDS011;33183;52.290;6.144;2024-03-29T10:17:18;3.53;;;1.48;;
47431;SDS011;33183;52.290;6.144;2024-03-29T10:19:44;2.97;;;1.40;;
47431;SDS011;33183;52.290;6.144;2024-03-29T10:22:09;1.85;;;1.17;;
47431;SDS011;33183;52.290;6.144;2024-03-29T10:24:35;1.48;;;1.10;;
47431;SDS011;33183;52.290;6.144;2024-03-29T10:27:01;2.78;;;1.55;;
47431;SDS011;33183;52.290;6.144;2024-03-29T10:29:29;2.10;;;1.20;;
47431;SDS011;33183;52.290;6.144;2024-03-29T10:31:58;1.45;;;1.10;;
47431;SDS011;33183;52.290;6.144;2024-03-29T10:34:26;2.00;;;1.30;;
47431;SDS011;33183;52.290;6.144;2024-03-29T10:36:52;1.63;;;1.17;;
47431;SDS011;33183;52.290;6.144;2024-03-29T10:39:17;2.17;;;1.35;;
47431;SDS011;33183;52.290;6.144;2024-03-29T10:41:43;2.28;;;1.40;;
47431;SDS011;33183;52.290;6.144;2024-03-29T10:44:10;2.63;;;1.30;;
47431;SDS011;33183;52.290;6.144;2024-03-29T10:46:37;1.88;;;1.38;;
47431;SDS011;33183;52.290;6.144;2024-03-29T10:49:04;5.18;;;1.85;;
47431;SDS011;33183;52.290;6.144;2024-03-29T10:51:32;1.88;;;1.08;;
47431;SDS011;33183;52.290;6.144;2024-03-29T10:53:58;2.60;;;1.20;;
47431;SDS011;33183;52.290;6.144;2024-03-29T10:56:26;2.55;;;1.30;;
47431;SDS011;33183;52.290;6.144;2024-03-29T10:58:51;1.08;;;0.90;;
47431;SDS011;33183;52.290;6.144;2024-03-29T11:01:21;1.50;;;1.13;;
47431;SDS011;33183;52.290;6.144;2024-03-29T11:03:50;1.27;;;0.90;;
47431;SDS011;33183;52.290;6.144;2024-03-29T11:06:16;2.35;;;1.13;;
47431;SDS011;33183;52.290;6.144;2024-03-29T11:08:42;2.45;;;1.20;;
47431;SDS011;33183;52.290;6.144;2024-03-29T11:11:12;1.85;;;1.02;;
47431;SDS011;33183;52.290;6.144;2024-03-29T11:13:40;1.42;;;0.77;;
47431;SDS011;33183;52.290;6.144;2024-03-29T11:16:11;1.60;;;0.90;;
47431;SDS011;33183;52.290;6.144;2024-03-29T11:18:36;3.13;;;1.20;;
47431;SDS011;33183;52.290;6.144;2024-03-29T11:21:03;1.77;;;1.00;;
47431;SDS011;33183;52.290;6.144;2024-03-29T11:23:31;1.67;;;1.08;;
47431;SDS011;33183;52.290;6.144;2024-03-29T11:25:57;1.48;;;0.90;;
47431;SDS011;33183;52.290;6.144;2024-03-29T11:28:34;3.42;;;1.20;;
47431;SDS011;33183;52.290;6.144;2024-03-29T11:31:03;2.08;;;1.20;;
47431;SDS011;33183;52.290;6.144;2024-03-29T11:35:58;1.25;;;0.80;;
47431;SDS011;33183;52.290;6.144;2024-03-29T11:38:31;2.80;;;1.00;;
47431;SDS011;33183;52.290;6.144;2024-03-29T11:41:02;1.88;;;0.95;;
47431;SDS011;33183;52.290;6.144;2024-03-29T11:43:29;0.88;;;0.70;;
47431;SDS011;33183;52.290;6.144;2024-03-29T11:46:01;2.72;;;1.20;;
47431;SDS011;33183;52.290;6.144;2024-03-29T11:48:28;1.70;;;0.98;;
47431;SDS011;33183;52.290;6.144;2024-03-29T11:50:56;1.80;;;1.13;;
47431;SDS011;33183;52.290;6.144;2024-03-29T11:53:21;1.50;;;0.90;;
47431;SDS011;33183;52.290;6.144;2024-03-29T11:55:47;2.25;;;0.98;;
47431;SDS011;33183;52.290;6.144;2024-03-29T11:58:18;3.03;;;1.48;;
47431;SDS011;33183;52.290;6.144;2024-03-29T12:00:43;2.13;;;1.17;;
47431;SDS011;33183;52.290;6.144;2024-03-29T12:03:10;3.83;;;1.15;;
47431;SDS011;33183;52.290;6.144;2024-03-29T12:05:36;1.50;;;0.80;;
47431;SDS011;33183;52.290;6.144;2024-03-29T12:08:01;2.55;;;0.73;;
47431;SDS011;33183;52.290;6.144;2024-03-29T12:10:27;1.42;;;0.85;;
47431;SDS011;33183;52.290;6.144;2024-03-29T12:12:55;2.10;;;1.00;;
47431;SDS011;33183;52.290;6.144;2024-03-29T12:15:23;4.03;;;1.30;;
47431;SDS011;33183;52.290;6.144;2024-03-29T12:17:53;1.45;;;1.02;;
47431;SDS011;33183;52.290;6.144;2024-03-29T12:20:19;3.08;;;0.80;;
47431;SDS011;33183;52.290;6.144;2024-03-29T12:22:44;1.48;;;1.00;;
47431;SDS011;33183;52.290;6.144;2024-03-29T12:25:09;1.27;;;0.70;;
47431;SDS011;33183;52.290;6.144;2024-03-29T12:27:34;0.82;;;0.80;;
47431;SDS011;33183;52.290;6.144;2024-03-29T12:30:00;4.38;;;1.58;;
47431;SDS011;33183;52.290;6.144;2024-03-29T12:32:25;2.78;;;0.88;;
47431;SDS011;33183;52.290;6.144;2024-03-29T12:34:51;1.25;;;0.65;;
47431;SDS011;33183;52.290;6.144;2024-03-29T12:37:16;1.67;;;0.90;;
47431;SDS011;33183;52.290;6.144;2024-03-29T12:39:41;1.80;;;0.80;;
47431;SDS011;33183;52.290;6.144;2024-03-29T12:42:07;2.05;;;0.60;;
47431;SDS011;33183;52.290;6.144;2024-03-29T12:44:32;1.63;;;0.98;;
47431;SDS011;33183;52.290;6.144;2024-03-29T12:46:59;1.30;;;1.00;;
47431;SDS011;33183;52.290;6.144;2024-03-29T12:49:25;1.48;;;0.80;;
47431;SDS011;33183;52.290;6.144;2024-03-29T12:51:50;1.95;;;0.80;;
47431;SDS011;33183;52.290;6.144;2024-03-29T12:54:16;1.23;;;0.80;;
47431;SDS011;33183;52.290;6.144;2024-03-29T12:56:43;1.55;;;0.90;;
47431;SDS011;33183;52.290;6.144;2024-03-29T12:59:08;2.08;;;0.90;;
47431;SDS011;33183;52.290;6.144;2024-03-29T13:01:33;3.97;;;1.13;;
47431;SDS011;33183;52.290;6.144;2024-03-29T13:03:59;1.27;;;0.80;;
47431;SDS011;33183;52.290;6.144;2024-03-29T13:06:24;1.77;;;0.85;;
47431;SDS011;33183;52.290;6.144;2024-03-29T13:08:49;3.75;;;0.90;;
47431;SDS011;33183;52.290;6.144;2024-03-29T13:11:16;5.00;;;1.65;;
47431;SDS011;33183;52.290;6.144;2024-03-29T13:13:41;3.50;;;0.80;;
47431;SDS011;33183;52.290;6.144;2024-03-29T13:16:06;59.03;;;4.57;;
47431;SDS011;33183;52.290;6.144;2024-03-29T13:18:32;1.50;;;0.75;;
47431;SDS011;33183;52.290;6.144;2024-03-29T13:20:58;2.97;;;0.80;;
47431;SDS011;33183;52.290;6.144;2024-03-29T13:23:26;11.82;;;1.10;;
47431;SDS011;33183;52.290;6.144;2024-03-29T13:25:52;3.53;;;1.15;;
47431;SDS011;33183;52.290;6.144;2024-03-29T13:28:20;3.20;;;0.90;;
47431;SDS011;33183;52.290;6.144;2024-03-29T13:30:45;3.25;;;0.60;;
47431;SDS011;33183;52.290;6.144;2024-03-29T13:33:13;1.60;;;0.98;;
47431;SDS011;33183;52.290;6.144;2024-03-29T13:35:41;4.70;;;0.85;;
47431;SDS011;33183;52.290;6.144;2024-03-29T13:38:07;2.15;;;0.80;;
47431;SDS011;33183;52.290;6.144;2024-03-29T13:40:32;1.55;;;0.80;;
47431;SDS011;33183;52.290;6.144;2024-03-29T13:42:59;2.58;;;0.98;;
47431;SDS011;33183;52.290;6.144;2024-03-29T13:45:24;1.02;;;0.80;;
47431;SDS011;33183;52.290;6.144;2024-03-29T13:47:53;1.95;;;0.98;;
47431;SDS011;33183;52.290;6.144;2024-03-29T13:50:18;1.10;;;0.70;;
47431;SDS011;33183;52.290;6.144;2024-03-29T13:52:44;0.93;;;0.75;;
47431;SDS011;33183;52.290;6.144;2024-03-29T13:55:09;2.47;;;0.88;;
47431;SDS011;33183;52.290;6.144;2024-03-29T13:57:35;3.35;;;1.13;;
47431;SDS011;33183;52.290;6.144;2024-03-29T14:00:01;3.05;;;0.95;;
47431;SDS011;33183;52.290;6.144;2024-03-29T14:02:27;0.80;;;0.80;;
47431;SDS011;33183;52.290;6.144;2024-03-29T14:04:53;1.13;;;0.80;;
47431;SDS011;33183;52.290;6.144;2024-03-29T14:07:19;1.48;;;0.80;;
47431;SDS011;33183;52.290;6.144;2024-03-29T14:09:45;1.33;;;0.70;;
47431;SDS011;33183;52.290;6.144;2024-03-29T14:12:10;1.38;;;0.80;;
47431;SDS011;33183;52.290;6.144;2024-03-29T14:14:36;1.30;;;0.80;;
47431;SDS011;33183;52.290;6.144;2024-03-29T14:17:02;1.15;;;0.80;;
47431;SDS011;33183;52.290;6.144;2024-03-29T14:19:32;2.25;;;0.82;;
47431;SDS011;33183;52.290;6.144;2024-03-29T14:22:01;1.20;;;0.57;;
47431;SDS011;33183;52.290;6.144;2024-03-29T14:24:26;2.40;;;0.95;;
47431;SDS011;33183;52.290;6.144;2024-03-29T14:26:53;0.95;;;0.60;;
47431;SDS011;33183;52.290;6.144;2024-03-29T14:29:18;2.65;;;0.65;;
47431;SDS011;33183;52.290;6.144;2024-03-29T14:31:46;2.25;;;0.75;;
47431;SDS011;33183;52.290;6.144;2024-03-29T14:34:12;1.40;;;0.80;;
47431;SDS011;33183;52.290;6.144;2024-03-29T14:36:37;6.28;;;0.93;;
47431;SDS011;33183;52.290;6.144;2024-03-29T14:39:03;0.95;;;0.60;;
47431;SDS011;33183;52.290;6.144;2024-03-29T14:41:28;7.45;;;1.60;;
47431;SDS011;33183;52.290;6.144;2024-03-29T14:43:53;2.25;;;1.33;;
47431;SDS011;33183;52.290;6.144;2024-03-29T14:46:20;2.33;;;0.75;;
47431;SDS011;33183;52.290;6.144;2024-03-29T14:48:46;1.30;;;0.65;;
47431;SDS011;33183;52.290;6.144;2024-03-29T14:51:12;1.17;;;0.70;;